Time;durP1;ratioP1;P1;durP2;ratioP2;P2;SDS_P1;SDS_P2;PMS_P1;PMS_P2;Temp;Humidity;BMP_temperature;BMP_pressure;BME280_temperature;BME280_humidity;BME280_pressure;Samples;Min_cycle;Max_cycle;Signal;HPM_P1;HPM_P2
2022/03/01 00:02:10;;;;;;;6.23;4.10;;;;;2.20;102327.00;;;;4900176;29;20246;-67
2022/03/01 00:04:56;;;;;;;9.00;4.90;;;;;2.00;102341.00;;;;4894004;29;20269;-68
2022/03/01 00:07:43;;;;;;;8.73;4.60;;;;;2.20;102330.00;;;;4895798;29;20256;-68
2022/03/01 00:10:30;;;;;;;7.30;4.40;;;;;2.10;102333.00;;;;4903261;29;20724;-67
2022/03/01 00:13:16;;;;;;;7.67;4.37;;;;;2.00;102340.00;;;;4893550;29;20325;-68
2022/03/01 00:16:02;;;;;;;10.43;5.43;;;;;2.10;102328.00;;;;4893425;29;20237;-68
2022/03/01 00:18:50;;;;;;;8.20;4.63;;;;;2.10;102317.00;;;;4896821;29;20237;-68
2022/03/01 00:21:37;;;;;;;13.07;5.47;;;;;2.10;102326.00;;;;4893233;29;20628;-64
2022/03/01 00:24:24;;;;;;;9.00;5.20;;;;;2.10;102328.00;;;;4893333;29;20762;-68
2022/03/01 00:27:10;;;;;;;10.07;5.50;;;;;2.00;102316.00;;;;4900877;29;20237;-67
2022/03/01 00:29:57;;;;;;;11.00;5.20;;;;;2.00;102323.00;;;;4901058;29;20235;-67
2022/03/01 00:32:43;;;;;;;8.60;4.97;;;;;1.90;102328.00;;;;4910319;29;20934;-67
2022/03/01 00:35:29;;;;;;;8.10;5.33;;;;;1.90;102312.00;;;;4900384;29;20246;-68
2022/03/01 00:38:16;;;;;;;8.73;5.10;;;;;2.00;102314.00;;;;4907534;29;20232;-67
2022/03/01 00:41:03;;;;;;;8.87;5.13;;;;;1.80;102310.00;;;;4898023;29;20245;-67
2022/03/01 00:43:50;;;;;;;10.30;5.27;;;;;1.80;102302.00;;;;4896803;29;20360;-68
2022/03/01 00:46:36;;;;;;;8.57;5.10;;;;;1.70;102297.00;;;;4884486;29;20742;-69
2022/03/01 00:49:22;;;;;;;6.87;4.47;;;;;1.70;102308.00;;;;4910605;29;20390;-66
2022/03/01 00:52:09;;;;;;;10.47;5.50;;;;;1.90;102285.00;;;;4906863;29;20233;-67
2022/03/01 00:54:55;;;;;;;5.77;4.23;;;;;1.80;102301.00;;;;4905139;29;20256;-66
2022/03/01 00:57:42;;;;;;;8.60;5.30;;;;;1.70;102293.00;;;;4893339;29;20366;-68
2022/03/01 01:00:28;;;;;;;11.57;4.93;;;;;1.60;102305.00;;;;4902063;29;20267;-67
2022/03/01 01:03:15;;;;;;;10.17;5.43;;;;;1.70;102301.00;;;;4904773;29;20277;-67
2022/03/01 01:06:02;;;;;;;8.40;5.30;;;;;1.70;102300.00;;;;4904365;29;20241;-67
2022/03/01 01:08:48;;;;;;;9.20;5.50;;;;;1.70;102307.00;;;;4896496;29;26558;-63
2022/03/01 01:11:34;;;;;;;9.10;5.60;;;;;1.70;102297.00;;;;4905463;29;20305;-67
2022/03/01 01:14:22;;;;;;;11.63;4.97;;;;;1.60;102306.00;;;;4901260;29;20293;-68
2022/03/01 01:17:08;;;;;;;10.33;5.43;;;;;1.50;102300.00;;;;4891810;29;20238;-67
2022/03/01 01:19:55;;;;;;;8.93;4.70;;;;;1.50;102300.00;;;;4897963;29;20238;-67
2022/03/01 01:22:42;;;;;;;8.23;4.77;;;;;1.60;102305.00;;;;4906648;29;20245;-67
2022/03/01 01:25:28;;;;;;;10.73;5.53;;;;;1.50;102263.00;;;;4892553;29;20442;-67
2022/03/01 01:28:15;;;;;;;11.27;5.20;;;;;1.50;102299.00;;;;4899973;29;20298;-68
2022/03/01 01:31:02;;;;;;;9.03;5.33;;;;;1.40;102283.00;;;;4883891;29;20462;-64
2022/03/01 01:33:49;;;;;;;10.47;5.67;;;;;1.40;102300.00;;;;4895562;29;20241;-68
2022/03/01 01:36:35;;;;;;;8.07;4.30;;;;;1.40;102294.00;;;;4899523;29;20245;-68
2022/03/01 01:39:21;;;;;;;9.53;5.40;;;;;1.40;102293.00;;;;4907301;29;20250;-67
2022/03/01 01:42:08;;;;;;;8.53;4.90;;;;;1.50;102306.00;;;;4891516;29;20350;-67
2022/03/01 01:44:54;;;;;;;9.07;4.63;;;;;1.40;102301.00;;;;4891496;29;20237;-68
2022/03/01 01:48:03;;;;;;;9.50;5.17;;;;;1.30;102308.00;;;;4882476;29;20934;-69
2022/03/01 01:50:50;;;;;;;7.87;5.53;;;;;1.30;102313.00;;;;4894868;29;20230;-66
2022/03/01 01:53:36;;;;;;;7.17;4.77;;;;;1.30;102315.00;;;;4892325;29;20266;-67
2022/03/01 01:56:22;;;;;;;9.17;5.20;;;;;1.40;102307.00;;;;4902154;29;20238;-68
2022/03/01 01:59:09;;;;;;;12.10;5.87;;;;;1.30;102314.00;;;;4891647;29;20639;-68
2022/03/01 02:01:55;;;;;;;10.77;5.10;;;;;1.30;102309.00;;;;4891685;29;20228;-67
2022/03/01 02:04:45;;;;;;;9.40;5.47;;;;;1.30;102306.00;;;;4891145;29;20610;-67
2022/03/01 02:07:32;;;;;;;7.47;5.00;;;;;1.40;102304.00;;;;4899841;29;20664;-68
2022/03/01 02:10:18;;;;;;;9.90;5.23;;;;;1.30;102299.00;;;;4908215;29;20250;-68
2022/03/01 02:13:04;;;;;;;9.13;5.20;;;;;1.20;102288.00;;;;4891722;29;20278;-68
2022/03/01 02:15:51;;;;;;;9.27;5.23;;;;;1.20;102286.00;;;;4899280;29;20302;-68
2022/03/01 02:18:39;;;;;;;8.90;5.00;;;;;1.10;102289.00;;;;4891026;29;20383;-68
2022/03/01 02:21:26;;;;;;;13.37;5.33;;;;;1.10;102288.00;;;;4901643;29;20242;-67
2022/03/01 02:24:13;;;;;;;6.77;5.07;;;;;1.00;102288.00;;;;4903919;29;20233;-65
2022/03/01 02:27:02;;;;;;;12.90;5.57;;;;;1.00;102242.00;;;;4902330;29;20241;-69
2022/03/01 02:29:49;;;;;;;9.60;5.60;;;;;1.00;102287.00;;;;4894751;29;20237;-69
2022/03/01 02:32:36;;;;;;;12.40;5.70;;;;;1.00;102286.00;;;;4898937;29;20269;-67
2022/03/01 02:35:23;;;;;;;9.07;5.27;;;;;1.10;102287.00;;;;4898694;29;20460;-68
2022/03/01 02:38:11;;;;;;;11.03;5.57;;;;;1.00;102282.00;;;;4901065;29;20244;-64
2022/03/01 02:40:58;;;;;;;12.07;6.70;;;;;1.10;102280.00;;;;4891493;29;20235;-67
2022/03/01 02:43:44;;;;;;;10.47;5.47;;;;;1.30;102284.00;;;;4898414;29;20252;-68
2022/03/01 02:46:30;;;;;;;8.47;5.37;;;;;1.00;102282.00;;;;4897979;29;20236;-68
2022/03/01 02:49:17;;;;;;;12.03;5.50;;;;;1.00;102281.00;;;;4890962;29;20617;-68
2022/03/01 02:52:04;;;;;;;11.53;5.17;;;;;0.80;102277.00;;;;4890717;29;20233;-67
2022/03/01 02:54:51;;;;;;;12.20;5.73;;;;;1.00;102282.00;;;;4890948;29;20245;-68
2022/03/01 02:57:38;;;;;;;11.67;5.70;;;;;1.00;102279.00;;;;4900011;29;20237;-69
2022/03/01 03:00:24;;;;;;;12.23;6.37;;;;;1.00;102278.00;;;;4893805;29;20237;-65
2022/03/01 03:03:11;;;;;;;12.47;5.97;;;;;1.20;102279.00;;;;4891014;29;20241;-68
2022/03/01 03:05:58;;;;;;;10.43;5.40;;;;;1.00;102278.00;;;;4899291;29;20253;-66
2022/03/01 03:08:45;;;;;;;11.40;5.87;;;;;0.90;102280.00;;;;4898782;29;20234;-65
2022/03/01 03:11:32;;;;;;;12.20;6.73;;;;;1.10;102275.00;;;;4893876;29;20353;-69
2022/03/01 03:14:19;;;;;;;8.57;6.00;;;;;1.10;102256.00;;;;4890897;29;20273;-68
2022/03/01 03:17:07;;;;;;;10.70;5.10;;;;;1.20;102265.00;;;;4890509;29;20237;-69
2022/03/01 03:19:53;;;;;;;12.13;5.73;;;;;1.10;102263.00;;;;4902332;29;20248;-69
2022/03/01 03:22:39;;;;;;;9.87;5.67;;;;;1.00;102268.00;;;;4893353;29;20290;-68
2022/03/01 03:25:25;;;;;;;9.90;5.07;;;;;1.00;102260.00;;;;4901909;29;20241;-67
2022/03/01 03:28:13;;;;;;;25.27;6.97;;;;;1.10;102263.00;;;;4900773;29;20328;-68
2022/03/01 03:30:59;;;;;;;9.33;5.90;;;;;1.10;102266.00;;;;4897082;29;20868;-68
2022/03/01 03:33:45;;;;;;;13.57;6.87;;;;;1.00;102261.00;;;;4901718;29;20298;-68
2022/03/01 03:36:31;;;;;;;13.13;6.50;;;;;1.10;102254.00;;;;4903093;29;20241;-67
2022/03/01 03:39:17;;;;;;;11.93;6.30;;;;;1.20;102257.00;;;;4903526;29;20583;-68
2022/03/01 03:42:04;;;;;;;11.17;6.07;;;;;1.10;102259.00;;;;4900647;29;20437;-66
2022/03/01 03:44:51;;;;;;;14.57;6.43;;;;;1.10;102254.00;;;;4901818;29;20289;-67
2022/03/01 03:47:38;;;;;;;14.00;6.73;;;;;1.00;102251.00;;;;4904616;29;20246;-67
2022/03/01 03:50:24;;;;;;;19.37;6.60;;;;;1.00;102256.00;;;;4912927;29;20279;-68
2022/03/01 03:53:13;;;;;;;10.27;5.57;;;;;1.10;102248.00;;;;4894217;29;20968;-67
2022/03/01 03:55:59;;;;;;;10.83;6.53;;;;;1.00;102243.00;;;;4901138;29;20277;-66
2022/03/01 03:58:45;;;;;;;12.83;6.37;;;;;1.10;102256.00;;;;4893179;29;20238;-68
2022/03/01 04:01:33;;;;;;;11.77;6.37;;;;;1.00;102246.00;;;;4887174;29;20244;-68
2022/03/01 04:04:19;;;;;;;12.73;6.07;;;;;0.90;102255.00;;;;4905861;29;20250;-68
2022/03/01 04:07:05;;;;;;;14.70;6.20;;;;;0.90;102244.00;;;;4900807;29;20345;-67
2022/03/01 04:09:52;;;;;;;11.50;6.33;;;;;0.80;102243.00;;;;4899313;29;20236;-66
2022/03/01 04:12:38;;;;;;;13.43;7.17;;;;;0.90;102246.00;;;;4896100;29;20237;-68
2022/03/01 04:15:25;;;;;;;13.10;6.70;;;;;0.80;102248.00;;;;4913098;29;20249;-68
2022/03/01 04:18:12;;;;;;;15.37;6.00;;;;;0.90;102253.00;;;;4905479;29;20237;-68
2022/03/01 04:20:58;;;;;;;10.40;6.23;;;;;0.80;102257.00;;;;4907294;29;20277;-68
2022/03/01 04:23:45;;;;;;;14.07;7.47;;;;;1.00;102177.00;;;;4905974;29;20240;-66
2022/03/01 04:26:33;;;;;;;13.20;7.07;;;;;0.90;102257.00;;;;4912707;29;20373;-68
2022/03/01 04:29:19;;;;;;;11.10;6.03;;;;;1.00;102245.00;;;;4905211;29;20404;-69
2022/03/01 04:32:06;;;;;;;11.30;7.00;;;;;0.80;102264.00;;;;4916048;29;20236;-69
2022/03/01 04:34:53;;;;;;;10.70;5.90;;;;;0.80;102262.00;;;;4903813;29;20278;-68
2022/03/01 04:37:41;;;;;;;12.13;5.83;;;;;0.80;102250.00;;;;4897631;29;20293;-68
2022/03/01 04:40:28;;;;;;;11.63;6.67;;;;;1.00;102240.00;;;;4906634;29;20282;-66
2022/03/01 04:43:14;;;;;;;13.10;6.80;;;;;0.90;102245.00;;;;4896124;29;20237;-68
2022/03/01 04:46:00;;;;;;;9.73;6.33;;;;;1.00;102251.00;;;;4894537;29;20607;-68
2022/03/01 04:48:47;;;;;;;11.73;6.37;;;;;1.00;102244.00;;;;4903462;29;20245;-69
2022/03/01 04:51:35;;;;;;;13.57;6.63;;;;;0.80;102239.00;;;;4896021;29;20265;-66
2022/03/01 04:54:21;;;;;;;10.90;6.57;;;;;0.70;102250.00;;;;4898331;29;20241;-66
2022/03/01 04:57:08;;;;;;;10.07;6.53;;;;;0.70;102242.00;;;;4898551;29;20233;-68
2022/03/01 04:59:54;;;;;;;13.20;6.73;;;;;0.80;102242.00;;;;4895688;29;20245;-67
2022/03/01 05:02:42;;;;;;;13.77;6.97;;;;;0.70;102237.00;;;;4895461;29;20588;-67
2022/03/01 05:05:29;;;;;;;13.80;7.10;;;;;0.70;102220.00;;;;4892846;29;20730;-66
2022/03/01 05:08:17;;;;;;;10.13;6.00;;;;;0.90;102238.00;;;;4901475;29;20297;-68
2022/03/01 05:11:04;;;;;;;13.23;7.00;;;;;0.80;102236.00;;;;4902794;29;20841;-68
2022/03/01 05:13:52;;;;;;;10.90;6.80;;;;;0.70;102239.00;;;;4903676;29;20349;-67
2022/03/01 05:16:38;;;;;;;9.37;5.60;;;;;0.70;102236.00;;;;4896320;29;20928;-68
2022/03/01 05:19:24;;;;;;;11.33;6.70;;;;;0.60;102236.00;;;;4901702;29;20237;-69
2022/03/01 05:22:11;;;;;;;12.30;7.27;;;;;0.70;102239.00;;;;4901912;29;20602;-68
2022/03/01 05:24:59;;;;;;;11.73;6.40;;;;;0.80;102243.00;;;;4902471;29;20252;-69
2022/03/01 05:27:46;;;;;;;16.47;6.77;;;;;0.60;102243.00;;;;4900668;29;20653;-69
2022/03/01 05:30:33;;;;;;;10.73;6.10;;;;;0.70;102249.00;;;;4883968;29;20318;-69
2022/03/01 05:33:19;;;;;;;20.37;6.70;;;;;0.80;102246.00;;;;4900310;29;20236;-68
2022/03/01 05:36:06;;;;;;;12.17;6.70;;;;;0.80;102259.00;;;;4893354;29;20294;-68
2022/03/01 05:38:52;;;;;;;13.00;6.70;;;;;0.60;102257.00;;;;4895791;29;20253;-68
2022/03/01 05:41:39;;;;;;;12.03;6.77;;;;;0.80;102261.00;;;;4899679;29;20359;-68
2022/03/01 05:44:25;;;;;;;15.60;6.67;;;;;0.90;102254.00;;;;4908291;29;20732;-69
2022/03/01 05:47:11;;;;;;;10.13;6.23;;;;;0.80;102230.00;;;;4898124;29;20256;-67
2022/03/01 05:49:58;;;;;;;13.77;7.00;;;;;0.80;102250.00;;;;4899620;29;20605;-68
2022/03/01 05:52:46;;;;;;;16.80;7.73;;;;;1.00;102250.00;;;;4914857;29;20229;-68
2022/03/01 05:55:32;;;;;;;13.63;7.07;;;;;0.90;102246.00;;;;4899884;29;20248;-67
2022/03/01 05:58:21;;;;;;;13.90;7.60;;;;;1.00;102251.00;;;;4903766;29;20317;-69
2022/03/01 06:01:07;;;;;;;13.17;7.67;;;;;1.00;102253.00;;;;4897038;29;20318;-67
2022/03/01 06:03:54;;;;;;;12.67;7.23;;;;;0.80;102246.00;;;;4903031;29;20233;-68
2022/03/01 06:06:40;;;;;;;18.23;7.37;;;;;0.80;102253.00;;;;4895565;29;20275;-67
2022/03/01 06:09:27;;;;;;;14.93;7.63;;;;;0.90;102257.00;;;;4892749;29;20292;-69
2022/03/01 06:12:13;;;;;;;11.40;7.23;;;;;0.90;102245.00;;;;4897323;29;20229;-68
2022/03/01 06:15:00;;;;;;;13.50;7.37;;;;;1.10;102251.00;;;;4882739;29;20318;-68
2022/03/01 06:17:46;;;;;;;13.90;7.87;;;;;1.00;102243.00;;;;4892839;29;20246;-67
2022/03/01 06:20:32;;;;;;;18.43;7.57;;;;;1.00;102253.00;;;;4905112;29;20245;-70
2022/03/01 06:23:19;;;;;;;13.03;7.57;;;;;1.00;102254.00;;;;4891825;29;20243;-68
2022/03/01 06:26:05;;;;;;;17.73;7.63;;;;;1.00;102257.00;;;;4891470;29;20229;-70
2022/03/01 06:28:51;;;;;;;13.87;7.30;;;;;1.20;102257.00;;;;4898231;29;20241;-70
2022/03/01 06:31:39;;;;;;;17.63;8.10;;;;;1.20;102249.00;;;;4891173;29;20234;-69
2022/03/01 06:34:25;;;;;;;15.43;7.87;;;;;1.10;102256.00;;;;4891563;29;20828;-69
2022/03/01 06:37:13;;;;;;;14.43;7.07;;;;;1.20;102266.00;;;;4903687;29;20314;-70
2022/03/01 06:40:00;;;;;;;16.03;8.13;;;;;1.30;102264.00;;;;4891278;29;20259;-69
2022/03/01 06:42:47;;;;;;;15.87;8.00;;;;;1.30;102260.00;;;;4891281;29;20242;-68
2022/03/01 06:45:33;;;;;;;20.13;8.13;;;;;1.40;102272.00;;;;4894285;29;20249;-68
2022/03/01 06:48:21;;;;;;;14.67;8.83;;;;;1.40;102285.00;;;;4891246;29;20319;-66
2022/03/01 06:51:08;;;;;;;13.77;7.90;;;;;1.50;102264.00;;;;4891375;29;20234;-68
2022/03/01 06:53:55;;;;;;;12.50;7.50;;;;;1.60;102278.00;;;;4891226;29;20239;-68
2022/03/01 06:56:41;;;;;;;15.53;8.30;;;;;1.50;102276.00;;;;4892820;29;20738;-69
2022/03/01 06:59:28;;;;;;;16.10;7.43;;;;;1.70;102267.00;;;;4887243;29;20241;-70
2022/03/01 07:02:14;;;;;;;15.13;7.40;;;;;1.70;102269.00;;;;4897790;29;20230;-69
2022/03/01 07:05:02;;;;;;;17.27;9.13;;;;;1.70;102268.00;;;;4905305;29;20236;-71
2022/03/01 07:07:48;;;;;;;17.63;8.13;;;;;1.70;102276.00;;;;4897724;29;20242;-69
2022/03/01 07:10:35;;;;;;;17.20;8.33;;;;;1.70;102264.00;;;;4910070;29;20318;-69
2022/03/01 07:13:22;;;;;;;16.50;8.00;;;;;1.60;102254.00;;;;4897636;29;20252;-69
2022/03/01 07:16:08;;;;;;;18.33;8.83;;;;;1.50;102268.00;;;;4899323;29;20340;-69
2022/03/01 07:18:54;;;;;;;16.93;9.17;;;;;1.50;102266.00;;;;4898766;29;20713;-69
2022/03/01 07:21:42;;;;;;;17.47;8.70;;;;;1.60;102264.00;;;;4896488;29;20242;-70
2022/03/01 07:24:29;;;;;;;14.43;8.57;;;;;1.50;102264.00;;;;4898073;29;20312;-68
2022/03/01 07:27:15;;;;;;;16.87;8.70;;;;;1.60;102284.00;;;;4902999;29;20246;-70
2022/03/01 07:30:02;;;;;;;19.23;9.03;;;;;1.70;102248.00;;;;4908742;29;20309;-70
2022/03/01 07:32:49;;;;;;;20.07;9.20;;;;;1.90;102270.00;;;;4905516;29;20720;-67
2022/03/01 07:35:36;;;;;;;17.80;9.50;;;;;1.80;102270.00;;;;4903440;29;20340;-70
2022/03/01 07:38:23;;;;;;;16.37;9.53;;;;;1.90;102270.00;;;;4904977;29;20258;-69
2022/03/01 07:41:09;;;;;;;16.63;8.93;;;;;1.90;102274.00;;;;4904101;29;20238;-69
2022/03/01 07:43:55;;;;;;;18.83;9.03;;;;;1.90;102263.00;;;;4910677;29;20236;-69
2022/03/01 07:46:42;;;;;;;16.17;9.10;;;;;2.00;102268.00;;;;4896965;29;20238;-70
2022/03/01 07:49:28;;;;;;;17.90;8.70;;;;;2.10;102269.00;;;;4905254;29;20262;-69
2022/03/01 07:52:14;;;;;;;17.33;8.73;;;;;2.20;102269.00;;;;4901666;29;20245;-71
2022/03/01 07:55:02;;;;;;;18.07;8.87;;;;;2.30;102270.00;;;;4904438;29;20935;-69
2022/03/01 07:57:49;;;;;;;17.27;9.20;;;;;2.40;102267.00;;;;4905507;29;20795;-70
2022/03/01 08:00:35;;;;;;;17.87;9.40;;;;;2.60;102277.00;;;;4908091;29;20242;-69
2022/03/01 08:03:22;;;;;;;20.90;11.03;;;;;2.70;102272.00;;;;4904492;29;20233;-69
2022/03/01 08:06:11;;;;;;;19.23;9.60;;;;;2.90;102270.00;;;;4896536;29;20884;-69
2022/03/01 08:08:57;;;;;;;18.97;9.00;;;;;3.00;102274.00;;;;4901038;29;20241;-68
2022/03/01 08:11:45;;;;;;;14.23;7.93;;;;;3.20;102274.00;;;;4893813;29;20778;-71
2022/03/01 08:14:32;;;;;;;21.03;9.70;;;;;3.30;102287.00;;;;4894181;29;20247;-71
2022/03/01 08:17:19;;;;;;;15.20;8.43;;;;;3.50;102280.00;;;;4903874;29;20244;-70
2022/03/01 08:20:07;;;;;;;17.63;8.20;;;;;3.40;102283.00;;;;4904525;29;20229;-70
2022/03/01 08:22:54;;;;;;;17.33;7.97;;;;;3.60;102283.00;;;;4902115;29;20920;-70
2022/03/01 08:25:40;;;;;;;19.10;8.77;;;;;3.70;102291.00;;;;4901457;29;20388;-68
2022/03/01 08:28:28;;;;;;;15.87;8.40;;;;;4.00;102279.00;;;;4901276;29;20923;-70
2022/03/01 08:31:15;;;;;;;20.43;10.10;;;;;3.90;102286.00;;;;4903460;29;20611;-68
2022/03/01 08:34:03;;;;;;;20.00;9.33;;;;;3.90;102288.00;;;;4895735;29;20248;-67
2022/03/01 08:36:49;;;;;;;17.47;8.70;;;;;4.20;102280.00;;;;4902403;29;20380;-69
2022/03/01 08:39:35;;;;;;;18.27;8.97;;;;;4.20;102284.00;;;;4908016;29;20289;-69
2022/03/01 08:42:21;;;;;;;18.40;9.30;;;;;4.20;102273.00;;;;4906542;29;20229;-70
2022/03/01 08:45:10;;;;;;;18.43;9.20;;;;;4.30;102273.00;;;;4911635;29;20237;-69
2022/03/01 08:47:58;;;;;;;17.40;9.53;;;;;4.50;102285.00;;;;4901504;29;20250;-69
2022/03/01 08:50:44;;;;;;;17.90;9.17;;;;;4.80;102283.00;;;;4892609;29;20309;-69
2022/03/01 08:53:35;;;;;;;15.33;8.47;;;;;4.90;102279.00;;;;4899987;29;20611;-71
2022/03/01 08:56:21;;;;;;;19.67;9.27;;;;;5.00;102290.00;;;;4900243;29;20238;-69
2022/03/01 08:59:09;;;;;;;15.33;8.20;;;;;5.20;102280.00;;;;4896162;29;20261;-70
2022/03/01 09:01:58;;;;;;;18.03;8.63;;;;;5.20;102286.00;;;;4905858;29;20235;-69
2022/03/01 09:04:44;;;;;;;13.20;6.97;;;;;5.40;102290.00;;;;4910984;29;20244;-70
2022/03/01 09:07:31;;;;;;;12.83;6.90;;;;;5.60;102283.00;;;;4903411;29;20241;-69
2022/03/01 09:10:21;;;;;;;15.80;7.23;;;;;5.80;102280.00;;;;4899441;29;20608;-69
2022/03/01 09:13:08;;;;;;;15.73;7.50;;;;;6.00;102277.00;;;;4900261;29;20403;-69
2022/03/01 09:15:55;;;;;;;19.33;8.43;;;;;6.00;102272.00;;;;4891982;29;20233;-67
2022/03/01 09:18:43;;;;;;;14.93;7.13;;;;;6.10;102287.00;;;;4899635;29;20245;-68
2022/03/01 09:21:29;;;;;;;13.50;7.03;;;;;6.30;102285.00;;;;4904573;29;20724;-69
2022/03/01 09:24:16;;;;;;;14.33;7.00;;;;;6.30;102279.00;;;;4892365;29;20226;-70
2022/03/01 09:27:03;;;;;;;13.83;7.03;;;;;6.40;102276.00;;;;4897196;29;20242;-67
2022/03/01 09:29:49;;;;;;;14.40;7.47;;;;;6.60;102285.00;;;;4899744;29;20987;-69
2022/03/01 09:32:35;;;;;;;14.07;7.67;;;;;6.70;102281.00;;;;4892277;29;20241;-70
2022/03/01 09:35:23;;;;;;;18.23;7.70;;;;;6.70;102274.00;;;;4892022;29;20238;-68
2022/03/01 09:38:10;;;;;;;16.53;6.77;;;;;6.80;102264.00;;;;4899004;29;20234;-69
2022/03/01 09:41:01;;;;;;;15.03;6.63;;;;;7.10;102257.00;;;;4902076;29;20261;-69
2022/03/01 09:43:52;;;;;;;12.37;6.17;;;;;7.00;102264.00;;;;4905401;29;20245;-70
2022/03/01 09:46:39;;;;;;;11.63;5.87;;;;;7.00;102265.00;;;;4902807;29;20237;-66
2022/03/01 09:49:25;;;;;;;13.20;5.63;;;;;7.20;102263.00;;;;4900082;29;20242;-69
2022/03/01 09:52:13;;;;;;;13.23;5.77;;;;;7.20;102265.00;;;;4895628;29;20757;-70
2022/03/01 09:55:00;;;;;;;11.50;5.27;;;;;7.10;102281.00;;;;4891807;29;20234;-69
2022/03/01 09:57:46;;;;;;;12.17;5.73;;;;;7.20;102279.00;;;;4899582;29;20245;-67
2022/03/01 10:00:32;;;;;;;12.33;5.57;;;;;7.80;102270.00;;;;4904939;29;20242;-68
2022/03/01 10:03:20;;;;;;;10.63;5.10;;;;;8.20;102276.00;;;;4891666;29;20241;-70
2022/03/01 10:06:09;;;;;;;12.17;6.13;;;;;8.40;102269.00;;;;4901593;29;20225;-69
2022/03/01 10:08:59;;;;;;;11.03;5.27;;;;;8.80;102276.00;;;;4902410;29;20313;-69
2022/03/01 10:11:46;;;;;;;11.37;5.73;;;;;9.00;102277.00;;;;4909484;29;20260;-69
2022/03/01 10:14:34;;;;;;;10.23;5.67;;;;;9.30;102267.00;;;;4892174;29;20376;-70
2022/03/01 10:17:20;;;;;;;10.87;5.60;;;;;9.70;102290.00;;;;4903340;29;20239;-70
2022/03/01 10:20:09;;;;;;;9.90;5.27;;;;;9.40;102276.00;;;;4902944;29;20245;-70
2022/03/01 10:22:57;;;;;;;10.27;5.83;;;;;9.40;102284.00;;;;4901779;29;20247;-71
2022/03/01 10:25:44;;;;;;;11.10;6.07;;;;;9.50;102283.00;;;;4892519;29;20734;-69
2022/03/01 10:28:34;;;;;;;8.47;5.40;;;;;9.40;102292.00;;;;4881546;29;20323;-71
2022/03/01 10:31:25;;;;;;;10.63;5.30;;;;;9.40;102286.00;;;;4890825;29;20245;-71
2022/03/01 10:34:13;;;;;;;10.83;5.67;;;;;9.40;102275.00;;;;4900177;29;20232;-71
2022/03/01 10:37:03;;;;;;;12.00;5.30;;;;;9.40;102290.00;;;;4902402;29;20244;-73
2022/03/01 10:39:51;;;;;;;11.00;5.70;;;;;9.50;102290.00;;;;4901329;29;20246;-72
2022/03/01 10:42:39;;;;;;;12.30;5.57;;;;;9.50;102287.00;;;;4895081;29;20283;-71
2022/03/01 10:45:31;;;;;;;11.03;5.83;;;;;9.70;102281.00;;;;4896339;29;20242;-71
2022/03/01 10:48:25;;;;;;;10.50;5.27;;;;;9.60;102279.00;;;;4896352;29;20337;-70
2022/03/01 10:51:11;;;;;;;11.53;5.53;;;;;9.60;102284.00;;;;4888328;29;20363;-71
2022/03/01 10:54:00;;;;;;;10.20;5.40;;;;;10.00;102288.00;;;;4888928;29;20286;-71
2022/03/01 10:56:51;;;;;;;10.57;5.47;;;;;10.20;102282.00;;;;4898987;29;20704;-71
2022/03/01 10:59:40;;;;;;;10.87;5.63;;;;;10.50;102284.00;;;;4894915;29;20248;-71
2022/03/01 11:02:27;;;;;;;9.43;5.10;;;;;10.20;102276.00;;;;4896442;29;20254;-71
2022/03/01 11:05:13;;;;;;;9.93;5.37;;;;;10.00;102271.00;;;;4891597;29;20588;-70
2022/03/01 11:08:03;;;;;;;10.50;5.53;;;;;10.10;102270.00;;;;4890423;29;20242;-71
2022/03/01 11:10:52;;;;;;;12.53;6.17;;;;;10.10;102271.00;;;;4899508;29;21077;-66
2022/03/01 11:13:41;;;;;;;9.77;5.10;;;;;10.10;102273.00;;;;4888344;29;20237;-70
2022/03/01 11:16:46;;;;;;;11.73;5.57;;;;;10.10;102273.00;;;;4893346;29;20736;-69
2022/03/01 11:19:41;;;;;;;11.53;5.33;;;;;10.20;102277.00;;;;4903546;29;20261;-69
2022/03/01 11:22:33;;;;;;;12.70;5.27;;;;;10.30;102273.00;;;;4901390;29;20325;-69
2022/03/01 11:25:21;;;;;;;11.00;5.47;;;;;10.20;102268.00;;;;4903462;29;20228;-70
2022/03/01 11:28:10;;;;;;;9.23;5.27;;;;;10.20;102271.00;;;;4889395;29;20321;-70
2022/03/01 11:30:57;;;;;;;11.57;6.00;;;;;10.40;102269.00;;;;4895097;29;20241;-69
2022/03/01 11:33:55;;;;;;;9.53;5.27;;;;;10.50;102277.00;;;;4894534;29;20921;-68
2022/03/01 11:36:49;;;;;;;11.63;5.43;;;;;10.60;102254.00;;;;4895415;29;20238;-69
2022/03/01 11:39:37;;;;;;;12.80;5.53;;;;;10.70;102265.00;;;;4907259;29;20319;-67
2022/03/01 11:42:23;;;;;;;9.13;5.30;;;;;10.80;102254.00;;;;4895734;29;20242;-70
2022/03/01 11:45:11;;;;;;;10.37;5.13;;;;;10.70;102272.00;;;;4904640;29;20876;-69
2022/03/01 11:48:03;;;;;;;9.27;5.33;;;;;10.60;102251.00;;;;4894043;29;20238;-70
2022/03/01 11:50:57;;;;;;;9.33;4.93;;;;;10.60;102266.00;;;;4893696;29;20234;-69
2022/03/01 11:53:49;;;;;;;10.60;5.40;;;;;10.60;102260.00;;;;4896201;29;20233;-69
2022/03/01 11:56:37;;;;;;;11.60;5.43;;;;;10.80;102257.00;;;;4898335;29;20294;-68
2022/03/01 11:59:24;;;;;;;11.90;5.40;;;;;10.90;102262.00;;;;4892777;29;20242;-70
2022/03/01 12:02:31;;;;;;;11.37;5.67;;;;;10.70;102266.00;;;;4898208;29;20233;-70
2022/03/01 12:05:23;;;;;;;12.77;6.00;;;;;10.80;102264.00;;;;4897251;29;20237;-70
2022/03/01 12:08:13;;;;;;;10.57;5.80;;;;;11.00;102246.00;;;;4899469;29;20385;-69
2022/03/01 12:11:09;;;;;;;9.73;5.27;;;;;11.10;102251.00;;;;4899269;29;20233;-69
2022/03/01 12:14:03;;;;;;;10.03;5.37;;;;;11.40;102265.00;;;;4899455;29;20363;-71
2022/03/01 12:16:50;;;;;;;9.53;5.70;;;;;11.40;102237.00;;;;4891969;29;20706;-69
2022/03/01 12:19:36;;;;;;;10.23;5.57;;;;;11.30;102244.00;;;;4897007;29;20233;-68
2022/03/01 12:22:22;;;;;;;12.97;5.97;;;;;11.50;102246.00;;;;4893673;29;20265;-69
2022/03/01 12:25:10;;;;;;;9.90;5.10;;;;;11.30;102253.00;;;;4894962;29;20233;-69
2022/03/01 12:27:56;;;;;;;11.20;5.27;;;;;11.40;102215.00;;;;4897881;29;20236;-69
2022/03/01 12:30:44;;;;;;;11.40;5.63;;;;;11.50;102260.00;;;;4901361;29;20233;-70
2022/03/01 12:33:32;;;;;;;11.17;5.83;;;;;11.50;102232.00;;;;4905047;29;20608;-68
2022/03/01 12:36:26;;;;;;;16.00;5.73;;;;;11.50;102252.00;;;;4900730;29;20238;-70
2022/03/01 12:39:14;;;;;;;9.63;5.40;;;;;11.50;102252.00;;;;4893129;29;21083;-69
2022/03/01 12:42:08;;;;;;;13.53;6.40;;;;;11.50;102254.00;;;;4892982;29;20341;-70
2022/03/01 12:44:55;;;;;;;10.53;5.33;;;;;11.60;102248.00;;;;4896155;29;20233;-70
2022/03/01 12:47:42;;;;;;;11.87;5.60;;;;;11.50;102238.00;;;;4898403;29;20253;-69
2022/03/01 12:50:28;;;;;;;12.73;5.80;;;;;11.50;102247.00;;;;4893301;29;20348;-70
2022/03/01 12:53:16;;;;;;;9.60;5.33;;;;;11.40;102222.00;;;;4892904;29;20265;-69
2022/03/01 12:56:03;;;;;;;9.70;5.67;;;;;11.40;102236.00;;;;4891605;29;20238;-69
2022/03/01 12:58:53;;;;;;;11.77;5.37;;;;;11.30;102234.00;;;;4896899;29;20301;-68
2022/03/01 13:01:41;;;;;;;12.00;5.50;;;;;11.20;102242.00;;;;4895347;29;20231;-70
2022/03/01 13:04:29;;;;;;;10.63;5.80;;;;;11.00;102234.00;;;;4897133;29;20236;-69
2022/03/01 13:07:17;;;;;;;10.97;5.57;;;;;11.20;102234.00;;;;4892704;29;20310;-66
2022/03/01 13:10:04;;;;;;;10.90;5.90;;;;;11.20;102229.00;;;;4893172;29;20318;-70
2022/03/01 13:12:51;;;;;;;10.07;5.20;;;;;11.30;102230.00;;;;4898091;29;20297;-66
2022/03/01 13:15:39;;;;;;;10.03;5.67;;;;;11.30;102230.00;;;;4896184;29;20238;-66
2022/03/01 13:18:27;;;;;;;13.93;5.93;;;;;11.30;102205.00;;;;4898063;29;21114;-69
2022/03/01 13:21:13;;;;;;;13.70;6.13;;;;;11.40;102214.00;;;;4901978;29;20274;-69
2022/03/01 13:24:03;;;;;;;11.60;6.17;;;;;11.30;102203.00;;;;4891310;29;20238;-70
2022/03/01 13:26:50;;;;;;;13.03;5.53;;;;;11.30;102207.00;;;;4903212;29;20238;-71
2022/03/01 13:29:39;;;;;;;11.00;5.87;;;;;11.30;102200.00;;;;4892225;29;20243;-71
2022/03/01 13:32:27;;;;;;;10.57;5.70;;;;;11.50;102200.00;;;;4906556;29;20736;-71
2022/03/01 13:35:13;;;;;;;10.03;5.77;;;;;11.30;102191.00;;;;4894253;29;20225;-67
2022/03/01 13:38:01;;;;;;;11.70;6.10;;;;;11.40;102196.00;;;;4896291;29;20873;-69
2022/03/01 13:40:48;;;;;;;12.67;6.17;;;;;11.60;102207.00;;;;4898969;29;20319;-72
2022/03/01 13:43:35;;;;;;;10.67;5.97;;;;;11.80;102194.00;;;;4899791;29;20257;-68
2022/03/01 13:46:22;;;;;;;14.67;5.73;;;;;11.80;102191.00;;;;4902240;29;20232;-69
2022/03/01 13:49:10;;;;;;;13.47;6.07;;;;;12.00;102154.00;;;;4893650;29;20371;-69